sensor_id;sensor_type;location;lat;lon;timestamp;temperature;humidity
3308;DHT22;1666;48.898;9.182;2023-02-08T00:00:39;-2.80;1.00
3308;DHT22;1666;48.898;9.182;2023-02-08T00:03:09;-2.80;1.00
3308;DHT22;1666;48.898;9.182;2023-02-08T00:05:42;-2.90;1.00
3308;DHT22;1666;48.898;9.182;2023-02-08T00:08:12;-2.90;1.00
3308;DHT22;1666;48.898;9.182;2023-02-08T00:10:42;-2.90;1.00
3308;DHT22;1666;48.898;9.182;2023-02-08T00:13:12;-2.90;1.00
3308;DHT22;1666;48.898;9.182;2023-02-08T00:15:42;-3.00;1.00
3308;DHT22;1666;48.898;9.182;2023-02-08T00:18:13;-3.00;1.00
3308;DHT22;1666;48.898;9.182;2023-02-08T00:20:45;-2.90;1.00
3308;DHT22;1666;48.898;9.182;2023-02-08T00:23:16;-2.90;1.00
3308;DHT22;1666;48.898;9.182;2023-02-08T00:25:46;-3.00;1.00
3308;DHT22;1666;48.898;9.182;2023-02-08T00:28:17;-2.90;1.00
3308;DHT22;1666;48.898;9.182;2023-02-08T00:30:47;-3.00;1.00
3308;DHT22;1666;48.898;9.182;2023-02-08T00:33:17;-3.00;1.00
3308;DHT22;1666;48.898;9.182;2023-02-08T00:35:50;-2.90;1.00
3308;DHT22;1666;48.898;9.182;2023-02-08T00:38:20;-2.90;1.00
3308;DHT22;1666;48.898;9.182;2023-02-08T00:40:50;-3.00;1.00
3308;DHT22;1666;48.898;9.182;2023-02-08T00:43:21;-2.90;1.00
3308;DHT22;1666;48.898;9.182;2023-02-08T00:45:53;-3.00;1.00
3308;DHT22;1666;48.898;9.182;2023-02-08T00:48:23;-3.00;1.00
3308;DHT22;1666;48.898;9.182;2023-02-08T00:51:00;-3.00;1.00
3308;DHT22;1666;48.898;9.182;2023-02-08T00:53:34;-3.00;1.00
3308;DHT22;1666;48.898;9.182;2023-02-08T00:56:05;-3.00;1.00
3308;DHT22;1666;48.898;9.182;2023-02-08T00:58:35;-3.00;1.00
3308;DHT22;1666;48.898;9.182;2023-02-08T01:01:06;-3.00;1.00
3308;DHT22;1666;48.898;9.182;2023-02-08T01:03:39;-3.00;1.00
3308;DHT22;1666;48.898;9.182;2023-02-08T01:06:14;-3.00;1.00
3308;DHT22;1666;48.898;9.182;2023-02-08T01:08:45;-3.10;1.00
3308;DHT22;1666;48.898;9.182;2023-02-08T01:11:17;-3.30;1.00
3308;DHT22;1666;48.898;9.182;2023-02-08T01:13:48;-3.30;1.00
3308;DHT22;1666;48.898;9.182;2023-02-08T01:16:21;-3.30;1.00
3308;DHT22;1666;48.898;9.182;2023-02-08T01:18:53;-3.40;1.00
3308;DHT22;1666;48.898;9.182;2023-02-08T01:21:28;-3.40;1.00
3308;DHT22;1666;48.898;9.182;2023-02-08T01:23:59;-3.40;1.00
3308;DHT22;1666;48.898;9.182;2023-02-08T01:26:29;-3.40;1.00
3308;DHT22;1666;48.898;9.182;2023-02-08T01:29:00;-3.40;1.00
3308;DHT22;1666;48.898;9.182;2023-02-08T01:31:32;-3.40;1.00
3308;DHT22;1666;48.898;9.182;2023-02-08T01:34:03;-3.40;1.00
3308;DHT22;1666;48.898;9.182;2023-02-08T01:36:37;-3.40;1.00
3308;DHT22;1666;48.898;9.182;2023-02-08T01:39:09;-3.40;1.00
3308;DHT22;1666;48.898;9.182;2023-02-08T01:41:42;-3.40;1.00
3308;DHT22;1666;48.898;9.182;2023-02-08T01:47:24;-3.20;1.00
3308;DHT22;1666;48.898;9.182;2023-02-08T01:49:54;-3.20;1.00
3308;DHT22;1666;48.898;9.182;2023-02-08T01:52:27;-3.30;1.00
3308;DHT22;1666;48.898;9.182;2023-02-08T01:55:00;-3.30;1.00
3308;DHT22;1666;48.898;9.182;2023-02-08T01:57:33;-3.30;1.00
3308;DHT22;1666;48.898;9.182;2023-02-08T02:00:07;-3.40;1.00
3308;DHT22;1666;48.898;9.182;2023-02-08T02:02:38;-3.30;1.00
3308;DHT22;1666;48.898;9.182;2023-02-08T02:05:08;-3.40;1.00
3308;DHT22;1666;48.898;9.182;2023-02-08T02:07:40;-3.40;1.00
3308;DHT22;1666;48.898;9.182;2023-02-08T02:10:14;-3.30;1.00
3308;DHT22;1666;48.898;9.182;2023-02-08T02:12:51;-3.30;1.00
3308;DHT22;1666;48.898;9.182;2023-02-08T02:15:21;-3.30;1.00
3308;DHT22;1666;48.898;9.182;2023-02-08T02:17:52;-3.40;1.00
3308;DHT22;1666;48.898;9.182;2023-02-08T02:20:33;-3.40;1.00
3308;DHT22;1666;48.898;9.182;2023-02-08T02:23:28;-3.40;1.00
3308;DHT22;1666;48.898;9.182;2023-02-08T02:26:28;-3.30;1.00
3308;DHT22;1666;48.898;9.182;2023-02-08T02:29:19;-3.40;1.00
3308;DHT22;1666;48.898;9.182;2023-02-08T02:32:03;-3.40;1.00
3308;DHT22;1666;48.898;9.182;2023-02-08T02:34:40;-3.40;1.00
3308;DHT22;1666;48.898;9.182;2023-02-08T02:37:24;-3.40;1.00
3308;DHT22;1666;48.898;9.182;2023-02-08T02:40:11;-3.40;1.00
3308;DHT22;1666;48.898;9.182;2023-02-08T02:42:51;-3.30;1.00
3308;DHT22;1666;48.898;9.182;2023-02-08T02:45:41;-3.40;1.00
3308;DHT22;1666;48.898;9.182;2023-02-08T02:48:21;-3.50;1.00
3308;DHT22;1666;48.898;9.182;2023-02-08T02:50:57;-3.50;1.00
3308;DHT22;1666;48.898;9.182;2023-02-08T02:53:32;-3.40;1.00
3308;DHT22;1666;48.898;9.182;2023-02-08T02:56:07;-3.50;1.00
3308;DHT22;1666;48.898;9.182;2023-02-08T02:58:39;-3.40;1.00
3308;DHT22;1666;48.898;9.182;2023-02-08T03:01:10;-3.50;1.00
3308;DHT22;1666;48.898;9.182;2023-02-08T03:03:43;-3.50;1.00
3308;DHT22;1666;48.898;9.182;2023-02-08T03:06:21;-3.50;1.00
3308;DHT22;1666;48.898;9.182;2023-02-08T03:09:14;-3.50;1.00
3308;DHT22;1666;48.898;9.182;2023-02-08T03:11:55;-3.50;1.00
3308;DHT22;1666;48.898;9.182;2023-02-08T03:14:33;-3.40;1.00
3308;DHT22;1666;48.898;9.182;2023-02-08T03:17:18;-3.40;1.00
3308;DHT22;1666;48.898;9.182;2023-02-08T03:20:01;-3.40;1.00
3308;DHT22;1666;48.898;9.182;2023-02-08T03:22:41;-3.60;1.00
3308;DHT22;1666;48.898;9.182;2023-02-08T03:25:16;-3.70;1.00
3308;DHT22;1666;48.898;9.182;2023-02-08T03:27:54;-3.70;1.00
3308;DHT22;1666;48.898;9.182;2023-02-08T03:30:32;-3.80;1.00
3308;DHT22;1666;48.898;9.182;2023-02-08T03:33:10;-3.80;1.00
3308;DHT22;1666;48.898;9.182;2023-02-08T03:35:49;-3.80;1.00
3308;DHT22;1666;48.898;9.182;2023-02-08T03:38:28;-3.80;1.00
3308;DHT22;1666;48.898;9.182;2023-02-08T03:41:02;-3.80;1.00
3308;DHT22;1666;48.898;9.182;2023-02-08T03:43:36;-3.80;1.00
3308;DHT22;1666;48.898;9.182;2023-02-08T03:46:10;-3.80;1.00
3308;DHT22;1666;48.898;9.182;2023-02-08T03:48:46;-3.90;1.00
3308;DHT22;1666;48.898;9.182;2023-02-08T03:51:21;-3.80;1.00
3308;DHT22;1666;48.898;9.182;2023-02-08T03:53:54;-3.80;1.00
3308;DHT22;1666;48.898;9.182;2023-02-08T03:56:29;-3.80;1.00
3308;DHT22;1666;48.898;9.182;2023-02-08T03:59:06;-3.70;1.00
3308;DHT22;1666;48.898;9.182;2023-02-08T04:01:43;-3.70;1.00
3308;DHT22;1666;48.898;9.182;2023-02-08T04:04:14;-3.70;1.00
3308;DHT22;1666;48.898;9.182;2023-02-08T04:06:47;-3.70;1.00
3308;DHT22;1666;48.898;9.182;2023-02-08T04:09:17;-3.80;1.00
3308;DHT22;1666;48.898;9.182;2023-02-08T04:11:47;-3.80;1.00
3308;DHT22;1666;48.898;9.182;2023-02-08T04:14:18;-3.90;1.00
3308;DHT22;1666;48.898;9.182;2023-02-08T04:16:47;-3.90;1.00
3308;DHT22;1666;48.898;9.182;2023-02-08T04:19:17;-3.90;1.00
3308;DHT22;1666;48.898;9.182;2023-02-08T04:21:49;-3.90;1.00
3308;DHT22;1666;48.898;9.182;2023-02-08T04:24:19;-3.90;1.00
3308;DHT22;1666;48.898;9.182;2023-02-08T04:26:49;-3.90;1.00
3308;DHT22;1666;48.898;9.182;2023-02-08T04:29:19;-3.80;1.00
3308;DHT22;1666;48.898;9.182;2023-02-08T04:31:49;-3.80;1.00
3308;DHT22;1666;48.898;9.182;2023-02-08T04:34:19;-3.80;1.00
3308;DHT22;1666;48.898;9.182;2023-02-08T04:36:52;-3.80;1.00
3308;DHT22;1666;48.898;9.182;2023-02-08T04:39:21;-3.70;1.00
3308;DHT22;1666;48.898;9.182;2023-02-08T04:41:51;-3.70;1.00
3308;DHT22;1666;48.898;9.182;2023-02-08T04:44:21;-3.80;1.00
3308;DHT22;1666;48.898;9.182;2023-02-08T04:46:51;-3.80;1.00
3308;DHT22;1666;48.898;9.182;2023-02-08T04:49:21;-3.90;1.00
3308;DHT22;1666;48.898;9.182;2023-02-08T04:51:53;-3.80;1.00
3308;DHT22;1666;48.898;9.182;2023-02-08T04:54:23;-3.80;1.00
3308;DHT22;1666;48.898;9.182;2023-02-08T04:56:53;-3.70;1.00
3308;DHT22;1666;48.898;9.182;2023-02-08T04:59:22;-3.70;1.00
3308;DHT22;1666;48.898;9.182;2023-02-08T05:01:52;-3.70;1.00
3308;DHT22;1666;48.898;9.182;2023-02-08T05:04:22;-3.80;1.00
3308;DHT22;1666;48.898;9.182;2023-02-08T05:06:54;-3.80;1.00
3308;DHT22;1666;48.898;9.182;2023-02-08T05:09:24;-3.90;1.00
3308;DHT22;1666;48.898;9.182;2023-02-08T05:11:54;-3.70;1.00
3308;DHT22;1666;48.898;9.182;2023-02-08T05:14:24;-3.70;1.00
3308;DHT22;1666;48.898;9.182;2023-02-08T05:16:53;-3.60;1.00
3308;DHT22;1666;48.898;9.182;2023-02-08T05:19:23;-3.60;1.00
3308;DHT22;1666;48.898;9.182;2023-02-08T05:21:55;-3.60;1.00
3308;DHT22;1666;48.898;9.182;2023-02-08T05:24:25;-3.80;1.00
3308;DHT22;1666;48.898;9.182;2023-02-08T05:26:55;-3.90;1.00
3308;DHT22;1666;48.898;9.182;2023-02-08T05:29:25;-3.90;1.00
3308;DHT22;1666;48.898;9.182;2023-02-08T05:31:55;-4.00;1.00
3308;DHT22;1666;48.898;9.182;2023-02-08T05:34:24;-4.10;1.00
3308;DHT22;1666;48.898;9.182;2023-02-08T05:36:57;-4.20;1.00
3308;DHT22;1666;48.898;9.182;2023-02-08T05:39:27;-4.20;1.00
3308;DHT22;1666;48.898;9.182;2023-02-08T05:41:56;-4.20;1.00
3308;DHT22;1666;48.898;9.182;2023-02-08T05:44:26;-4.10;1.00
3308;DHT22;1666;48.898;9.182;2023-02-08T05:46:56;-4.10;1.00
3308;DHT22;1666;48.898;9.182;2023-02-08T05:49:26;-4.10;1.00
3308;DHT22;1666;48.898;9.182;2023-02-08T05:51:58;-4.00;1.00
3308;DHT22;1666;48.898;9.182;2023-02-08T05:54:28;-3.90;1.00
3308;DHT22;1666;48.898;9.182;2023-02-08T05:56:58;-3.90;1.00
3308;DHT22;1666;48.898;9.182;2023-02-08T05:59:28;-4.00;1.00
3308;DHT22;1666;48.898;9.182;2023-02-08T06:01:57;-3.90;1.00
3308;DHT22;1666;48.898;9.182;2023-02-08T06:04:27;-3.90;1.00
3308;DHT22;1666;48.898;9.182;2023-02-08T06:07:00;-3.80;1.00
3308;DHT22;1666;48.898;9.182;2023-02-08T06:09:30;-3.80;1.00
3308;DHT22;1666;48.898;9.182;2023-02-08T06:11:59;-3.80;1.00
3308;DHT22;1666;48.898;9.182;2023-02-08T06:14:29;-3.90;1.00
3308;DHT22;1666;48.898;9.182;2023-02-08T06:16:59;-3.90;1.00
3308;DHT22;1666;48.898;9.182;2023-02-08T06:19:31;-3.90;1.00
3308;DHT22;1666;48.898;9.182;2023-02-08T06:22:04;-4.00;1.00
3308;DHT22;1666;48.898;9.182;2023-02-08T06:24:34;-4.00;1.00
3308;DHT22;1666;48.898;9.182;2023-02-08T06:27:04;-4.00;1.00
3308;DHT22;1666;48.898;9.182;2023-02-08T06:29:33;-4.00;1.00
3308;DHT22;1666;48.898;9.182;2023-02-08T06:32:04;-3.90;1.00
3308;DHT22;1666;48.898;9.182;2023-02-08T06:34:34;-4.00;1.00
3308;DHT22;1666;48.898;9.182;2023-02-08T06:37:06;-4.00;1.00
3308;DHT22;1666;48.898;9.182;2023-02-08T06:39:36;-4.00;1.00
3308;DHT22;1666;48.898;9.182;2023-02-08T06:42:05;-4.00;1.00
3308;DHT22;1666;48.898;9.182;2023-02-08T06:44:35;-4.00;1.00
3308;DHT22;1666;48.898;9.182;2023-02-08T06:47:20;-4.00;1.00
3308;DHT22;1666;48.898;9.182;2023-02-08T06:49:50;-4.00;1.00
3308;DHT22;1666;48.898;9.182;2023-02-08T06:52:22;-3.90;1.00
3308;DHT22;1666;48.898;9.182;2023-02-08T06:54:52;-3.80;1.00
3308;DHT22;1666;48.898;9.182;2023-02-08T06:57:22;-3.90;1.00
3308;DHT22;1666;48.898;9.182;2023-02-08T06:59:51;-3.90;1.00
3308;DHT22;1666;48.898;9.182;2023-02-08T07:02:21;-3.80;1.00
3308;DHT22;1666;48.898;9.182;2023-02-08T07:04:51;-3.80;1.00
3308;DHT22;1666;48.898;9.182;2023-02-08T07:07:23;-3.70;1.00
3308;DHT22;1666;48.898;9.182;2023-02-08T07:09:53;-3.70;1.00
3308;DHT22;1666;48.898;9.182;2023-02-08T07:12:23;-3.60;1.00
3308;DHT22;1666;48.898;9.182;2023-02-08T07:14:53;-3.60;1.00
3308;DHT22;1666;48.898;9.182;2023-02-08T07:17:23;-3.50;1.00
3308;DHT22;1666;48.898;9.182;2023-02-08T07:19:52;-3.50;1.00
3308;DHT22;1666;48.898;9.182;2023-02-08T07:22:25;-3.40;1.00
3308;DHT22;1666;48.898;9.182;2023-02-08T07:24:55;-3.30;1.00
3308;DHT22;1666;48.898;9.182;2023-02-08T07:27:25;-3.30;1.00
3308;DHT22;1666;48.898;9.182;2023-02-08T07:29:54;-3.20;1.00
3308;DHT22;1666;48.898;9.182;2023-02-08T07:32:24;-3.20;1.00
3308;DHT22;1666;48.898;9.182;2023-02-08T07:34:54;-3.20;1.00
3308;DHT22;1666;48.898;9.182;2023-02-08T07:37:27;-3.10;1.00
3308;DHT22;1666;48.898;9.182;2023-02-08T07:39:57;-3.10;1.00
3308;DHT22;1666;48.898;9.182;2023-02-08T07:42:27;-3.00;1.00
3308;DHT22;1666;48.898;9.182;2023-02-08T07:44:57;-3.00;1.00
3308;DHT22;1666;48.898;9.182;2023-02-08T07:47:26;-2.90;1.00
3308;DHT22;1666;48.898;9.182;2023-02-08T07:49:56;-2.80;1.00
3308;DHT22;1666;48.898;9.182;2023-02-08T07:52:29;-2.80;1.00
3308;DHT22;1666;48.898;9.182;2023-02-08T07:54:58;-2.80;1.00
3308;DHT22;1666;48.898;9.182;2023-02-08T07:57:28;-2.70;1.00
3308;DHT22;1666;48.898;9.182;2023-02-08T07:59:58;-2.70;1.00
3308;DHT22;1666;48.898;9.182;2023-02-08T08:02:28;-2.70;1.00
3308;DHT22;1666;48.898;9.182;2023-02-08T08:04:58;-2.60;1.00
3308;DHT22;1666;48.898;9.182;2023-02-08T08:07:30;-2.60;1.00
3308;DHT22;1666;48.898;9.182;2023-02-08T08:10:00;-2.50;1.00
3308;DHT22;1666;48.898;9.182;2023-02-08T08:12:29;-2.40;1.00
3308;DHT22;1666;48.898;9.182;2023-02-08T08:14:59;-2.40;1.00
3308;DHT22;1666;48.898;9.182;2023-02-08T08:17:29;-2.30;1.00
3308;DHT22;1666;48.898;9.182;2023-02-08T08:19:59;-2.30;1.00
3308;DHT22;1666;48.898;9.182;2023-02-08T08:22:31;-2.20;1.00
3308;DHT22;1666;48.898;9.182;2023-02-08T08:25:01;-2.20;1.00
3308;DHT22;1666;48.898;9.182;2023-02-08T08:27:31;-2.10;1.00
3308;DHT22;1666;48.898;9.182;2023-02-08T08:30:01;-2.10;1.00
3308;DHT22;1666;48.898;9.182;2023-02-08T08:32:31;-1.90;1.00
3308;DHT22;1666;48.898;9.182;2023-02-08T08:35:01;-2.00;1.00
3308;DHT22;1666;48.898;9.182;2023-02-08T08:37:34;-1.90;1.00
3308;DHT22;1666;48.898;9.182;2023-02-08T08:40:06;-1.80;1.00
3308;DHT22;1666;48.898;9.182;2023-02-08T08:42:36;-1.70;1.00
3308;DHT22;1666;48.898;9.182;2023-02-08T08:45:08;-1.90;1.00
3308;DHT22;1666;48.898;9.182;2023-02-08T08:47:38;-1.80;1.00
3308;DHT22;1666;48.898;9.182;2023-02-08T08:50:08;-1.70;1.00
3308;DHT22;1666;48.898;9.182;2023-02-08T08:52:40;-1.80;1.00
3308;DHT22;1666;48.898;9.182;2023-02-08T08:55:11;-1.60;1.00
3308;DHT22;1666;48.898;9.182;2023-02-08T08:57:41;-1.60;1.00
3308;DHT22;1666;48.898;9.182;2023-02-08T09:00:11;-1.50;1.00
3308;DHT22;1666;48.898;9.182;2023-02-08T09:02:41;-1.40;1.00
3308;DHT22;1666;48.898;9.182;2023-02-08T09:05:11;-1.30;1.00
3308;DHT22;1666;48.898;9.182;2023-02-08T09:07:43;-1.20;1.00
3308;DHT22;1666;48.898;9.182;2023-02-08T09:10:13;-1.20;1.00
3308;DHT22;1666;48.898;9.182;2023-02-08T09:12:43;-1.20;1.00
3308;DHT22;1666;48.898;9.182;2023-02-08T09:15:13;-1.20;1.00
3308;DHT22;1666;48.898;9.182;2023-02-08T09:17:43;-1.00;1.00
3308;DHT22;1666;48.898;9.182;2023-02-08T09:20:13;-1.00;1.00
3308;DHT22;1666;48.898;9.182;2023-02-08T09:22:45;-0.90;1.00
3308;DHT22;1666;48.898;9.182;2023-02-08T09:25:15;-0.90;1.00
3308;DHT22;1666;48.898;9.182;2023-02-08T09:27:45;-0.80;1.00
3308;DHT22;1666;48.898;9.182;2023-02-08T09:30:15;-0.70;1.00
3308;DHT22;1666;48.898;9.182;2023-02-08T09:32:44;-0.60;1.00
3308;DHT22;1666;48.898;9.182;2023-02-08T09:35:14;-0.50;1.00
3308;DHT22;1666;48.898;9.182;2023-02-08T09:37:47;-0.40;1.00
3308;DHT22;1666;48.898;9.182;2023-02-08T09:40:22;-0.30;1.00
3308;DHT22;1666;48.898;9.182;2023-02-08T09:43:03;-0.30;1.00
3308;DHT22;1666;48.898;9.182;2023-02-08T09:45:42;-0.30;1.00
3308;DHT22;1666;48.898;9.182;2023-02-08T09:48:28;-0.20;1.00
3308;DHT22;1666;48.898;9.182;2023-02-08T09:51:01;0.00;1.00
3308;DHT22;1666;48.898;9.182;2023-02-08T09:53:40;0.10;1.00
3308;DHT22;1666;48.898;9.182;2023-02-08T09:56:12;0.20;1.00
3308;DHT22;1666;48.898;9.182;2023-02-08T09:58:46;0.20;1.00
3308;DHT22;1666;48.898;9.182;2023-02-08T10:01:20;0.30;1.00
3308;DHT22;1666;48.898;9.182;2023-02-08T10:03:54;0.40;1.00
3308;DHT22;1666;48.898;9.182;2023-02-08T10:06:25;0.50;1.00
3308;DHT22;1666;48.898;9.182;2023-02-08T10:09:02;0.60;1.00
3308;DHT22;1666;48.898;9.182;2023-02-08T10:11:48;0.70;1.00
3308;DHT22;1666;48.898;9.182;2023-02-08T10:14:38;0.70;1.00
3308;DHT22;1666;48.898;9.182;2023-02-08T10:17:32;0.60;1.00
3308;DHT22;1666;48.898;9.182;2023-02-08T10:20:16;0.70;1.00
3308;DHT22;1666;48.898;9.182;2023-02-08T10:22:54;0.80;1.00
3308;DHT22;1666;48.898;9.182;2023-02-08T10:25:57;0.90;1.00
3308;DHT22;1666;48.898;9.182;2023-02-08T10:31:32;0.80;1.00
3308;DHT22;1666;48.898;9.182;2023-02-08T10:34:13;0.90;1.00
3308;DHT22;1666;48.898;9.182;2023-02-08T10:36:48;1.20;1.00
3308;DHT22;1666;48.898;9.182;2023-02-08T10:39:23;1.30;1.00
3308;DHT22;1666;48.898;9.182;2023-02-08T10:41:58;1.40;1.00
3308;DHT22;1666;48.898;9.182;2023-02-08T10:44:33;1.30;1.00
3308;DHT22;1666;48.898;9.182;2023-02-08T10:47:11;1.50;1.00
3308;DHT22;1666;48.898;9.182;2023-02-08T10:49:47;1.50;1.00
3308;DHT22;1666;48.898;9.182;2023-02-08T10:52:19;1.60;1.00
3308;DHT22;1666;48.898;9.182;2023-02-08T10:54:56;1.40;1.00
3308;DHT22;1666;48.898;9.182;2023-02-08T10:57:37;1.70;1.00
3308;DHT22;1666;48.898;9.182;2023-02-08T11:00:11;1.70;1.00
3308;DHT22;1666;48.898;9.182;2023-02-08T11:02:44;1.70;1.00
3308;DHT22;1666;48.898;9.182;2023-02-08T11:05:17;1.80;1.00
3308;DHT22;1666;48.898;9.182;2023-02-08T11:08:04;1.90;1.00
3308;DHT22;1666;48.898;9.182;2023-02-08T11:10:35;2.00;1.00
3308;DHT22;1666;48.898;9.182;2023-02-08T11:13:16;2.10;1.00
3308;DHT22;1666;48.898;9.182;2023-02-08T11:15:51;2.20;1.00
3308;DHT22;1666;48.898;9.182;2023-02-08T11:18:23;2.40;1.00
3308;DHT22;1666;48.898;9.182;2023-02-08T11:20:56;2.50;1.00
3308;DHT22;1666;48.898;9.182;2023-02-08T11:23:29;2.50;1.00
3308;DHT22;1666;48.898;9.182;2023-02-08T11:26:15;2.70;1.00
3308;DHT22;1666;48.898;9.182;2023-02-08T11:28:58;2.70;1.00
3308;DHT22;1666;48.898;9.182;2023-02-08T11:31:30;2.60;1.00
3308;DHT22;1666;48.898;9.182;2023-02-08T11:34:03;2.60;1.00
3308;DHT22;1666;48.898;9.182;2023-02-08T11:36:36;2.70;1.00
3308;DHT22;1666;48.898;9.182;2023-02-08T11:39:16;2.80;1.00
3308;DHT22;1666;48.898;9.182;2023-02-08T11:41:48;2.90;1.00
3308;DHT22;1666;48.898;9.182;2023-02-08T11:44:26;3.00;1.00
3308;DHT22;1666;48.898;9.182;2023-02-08T11:46:57;3.00;1.00
3308;DHT22;1666;48.898;9.182;2023-02-08T11:49:34;3.00;1.00
3308;DHT22;1666;48.898;9.182;2023-02-08T11:52:07;3.00;1.00
3308;DHT22;1666;48.898;9.182;2023-02-08T11:54:47;3.20;1.00
3308;DHT22;1666;48.898;9.182;2023-02-08T11:57:19;3.40;1.00
3308;DHT22;1666;48.898;9.182;2023-02-08T12:00:16;3.30;1.00
3308;DHT22;1666;48.898;9.182;2023-02-08T12:02:49;3.30;1.00
3308;DHT22;1666;48.898;9.182;2023-02-08T12:05:26;3.40;1.00
3308;DHT22;1666;48.898;9.182;2023-02-08T12:08:06;3.40;1.00
3308;DHT22;1666;48.898;9.182;2023-02-08T12:10:51;3.40;1.00
3308;DHT22;1666;48.898;9.182;2023-02-08T12:13:37;3.60;1.00
3308;DHT22;1666;48.898;9.182;2023-02-08T12:16:24;3.80;1.00
3308;DHT22;1666;48.898;9.182;2023-02-08T12:19:28;3.90;1.00
3308;DHT22;1666;48.898;9.182;2023-02-08T12:22:05;3.90;1.00
3308;DHT22;1666;48.898;9.182;2023-02-08T12:24:44;3.90;1.00
3308;DHT22;1666;48.898;9.182;2023-02-08T12:27:26;3.90;1.00
3308;DHT22;1666;48.898;9.182;2023-02-08T12:30:05;3.90;1.00
3308;DHT22;1666;48.898;9.182;2023-02-08T12:33:06;3.80;1.00
3308;DHT22;1666;48.898;9.182;2023-02-08T12:35:52;3.80;1.00
3308;DHT22;1666;48.898;9.182;2023-02-08T12:38:46;3.80;1.00
3308;DHT22;1666;48.898;9.182;2023-02-08T12:42:04;3.70;1.00
3308;DHT22;1666;48.898;9.182;2023-02-08T12:44:45;4.00;1.00
3308;DHT22;1666;48.898;9.182;2023-02-08T12:47:35;4.00;1.00
3308;DHT22;1666;48.898;9.182;2023-02-08T12:50:30;3.90;1.00
3308;DHT22;1666;48.898;9.182;2023-02-08T12:53:06;4.00;1.00
3308;DHT22;1666;48.898;9.182;2023-02-08T12:55:41;4.00;1.00
3308;DHT22;1666;48.898;9.182;2023-02-08T12:58:23;3.90;1.00
3308;DHT22;1666;48.898;9.182;2023-02-08T13:00:56;4.00;1.00
3308;DHT22;1666;48.898;9.182;2023-02-08T13:03:37;4.00;1.00
3308;DHT22;1666;48.898;9.182;2023-02-08T13:06:16;4.00;1.00
3308;DHT22;1666;48.898;9.182;2023-02-08T13:08:51;4.10;1.00
3308;DHT22;1666;48.898;9.182;2023-02-08T13:11:23;4.10;1.00
3308;DHT22;1666;48.898;9.182;2023-02-08T13:13:59;4.10;1.00
3308;DHT22;1666;48.898;9.182;2023-02-08T13:16:33;4.10;1.00
3308;DHT22;1666;48.898;9.182;2023-02-08T13:19:17;4.00;1.00
3308;DHT22;1666;48.898;9.182;2023-02-08T13:21:53;4.10;1.00
3308;DHT22;1666;48.898;9.182;2023-02-08T13:24:33;4.10;1.00
3308;DHT22;1666;48.898;9.182;2023-02-08T13:27:03;4.20;1.00
3308;DHT22;1666;48.898;9.182;2023-02-08T13:29:36;4.10;1.00
3308;DHT22;1666;48.898;9.182;2023-02-08T13:32:13;4.10;1.00
3308;DHT22;1666;48.898;9.182;2023-02-08T13:34:45;4.10;1.00
3308;DHT22;1666;48.898;9.182;2023-02-08T13:37:21;4.00;1.00
3308;DHT22;1666;48.898;9.182;2023-02-08T13:40:02;4.20;1.00
3308;DHT22;1666;48.898;9.182;2023-02-08T13:42:36;4.10;1.00
3308;DHT22;1666;48.898;9.182;2023-02-08T13:45:18;4.10;1.00
3308;DHT22;1666;48.898;9.182;2023-02-08T13:47:56;4.20;1.00
3308;DHT22;1666;48.898;9.182;2023-02-08T13:50:43;4.10;1.00
3308;DHT22;1666;48.898;9.182;2023-02-08T13:53:17;4.10;1.00
3308;DHT22;1666;48.898;9.182;2023-02-08T13:55:53;4.20;1.00
3308;DHT22;1666;48.898;9.182;2023-02-08T14:01:24;4.20;1.00
3308;DHT22;1666;48.898;9.182;2023-02-08T14:04:34;4.10;1.00
3308;DHT22;1666;48.898;9.182;2023-02-08T14:07:13;4.20;1.00
3308;DHT22;1666;48.898;9.182;2023-02-08T14:10:02;4.10;1.00
3308;DHT22;1666;48.898;9.182;2023-02-08T14:12:39;3.90;1.00
3308;DHT22;1666;48.898;9.182;2023-02-08T14:15:27;4.00;1.00
3308;DHT22;1666;48.898;9.182;2023-02-08T14:17:58;4.00;1.00
3308;DHT22;1666;48.898;9.182;2023-02-08T14:20:34;3.90;1.00
3308;DHT22;1666;48.898;9.182;2023-02-08T14:23:18;3.90;1.00
3308;DHT22;1666;48.898;9.182;2023-02-08T14:25:53;3.80;1.00
3308;DHT22;1666;48.898;9.182;2023-02-08T14:28:26;3.80;1.00
3308;DHT22;1666;48.898;9.182;2023-02-08T14:31:00;3.80;1.00
3308;DHT22;1666;48.898;9.182;2023-02-08T14:33:32;3.70;1.00
3308;DHT22;1666;48.898;9.182;2023-02-08T14:36:05;3.70;1.00
3308;DHT22;1666;48.898;9.182;2023-02-08T14:41:51;3.70;1.00
3308;DHT22;1666;48.898;9.182;2023-02-08T14:44:56;3.70;1.00
3308;DHT22;1666;48.898;9.182;2023-02-08T14:50:48;3.60;1.00
3308;DHT22;1666;48.898;9.182;2023-02-08T14:53:24;3.60;1.00
3308;DHT22;1666;48.898;9.182;2023-02-08T14:56:01;3.50;1.00
3308;DHT22;1666;48.898;9.182;2023-02-08T14:58:36;3.50;1.00
3308;DHT22;1666;48.898;9.182;2023-02-08T15:01:06;3.30;1.00
3308;DHT22;1666;48.898;9.182;2023-02-08T15:03:41;3.30;1.00
3308;DHT22;1666;48.898;9.182;2023-02-08T15:06:33;3.30;1.00
3308;DHT22;1666;48.898;9.182;2023-02-08T15:09:18;3.30;1.00
3308;DHT22;1666;48.898;9.182;2023-02-08T15:11:56;3.20;1.00
3308;DHT22;1666;48.898;9.182;2023-02-08T15:14:32;3.20;1.00
3308;DHT22;1666;48.898;9.182;2023-02-08T15:17:02;3.20;1.00
3308;DHT22;1666;48.898;9.182;2023-02-08T15:19:34;3.10;1.00
3308;DHT22;1666;48.898;9.182;2023-02-08T15:22:18;3.10;1.00
3308;DHT22;1666;48.898;9.182;2023-02-08T15:24:49;3.00;1.00
3308;DHT22;1666;48.898;9.182;2023-02-08T15:27:22;3.00;1.00
3308;DHT22;1666;48.898;9.182;2023-02-08T15:29:55;2.90;1.00
3308;DHT22;1666;48.898;9.182;2023-02-08T15:32:27;3.00;1.00
3308;DHT22;1666;48.898;9.182;2023-02-08T15:34:59;2.80;1.00
3308;DHT22;1666;48.898;9.182;2023-02-08T15:37:33;2.90;1.00
3308;DHT22;1666;48.898;9.182;2023-02-08T15:40:03;2.90;1.00
3308;DHT22;1666;48.898;9.182;2023-02-08T15:42:33;2.80;1.00
3308;DHT22;1666;48.898;9.182;2023-02-08T15:45:20;2.80;1.00
3308;DHT22;1666;48.898;9.182;2023-02-08T15:47:51;2.70;1.00
3308;DHT22;1666;48.898;9.182;2023-02-08T15:50:22;2.70;1.00
3308;DHT22;1666;48.898;9.182;2023-02-08T15:52:56;2.60;1.00
3308;DHT22;1666;48.898;9.182;2023-02-08T15:55:30;2.60;1.00
3308;DHT22;1666;48.898;9.182;2023-02-08T15:58:04;2.50;1.00
3308;DHT22;1666;48.898;9.182;2023-02-08T16:00:41;2.50;1.00
3308;DHT22;1666;48.898;9.182;2023-02-08T16:03:17;2.50;1.00
3308;DHT22;1666;48.898;9.182;2023-02-08T16:05:51;2.40;1.00
3308;DHT22;1666;48.898;9.182;2023-02-08T16:08:24;2.30;1.00
3308;DHT22;1666;48.898;9.182;2023-02-08T16:10:57;2.30;1.00
3308;DHT22;1666;48.898;9.182;2023-02-08T16:13:30;2.20;1.00
3308;DHT22;1666;48.898;9.182;2023-02-08T16:16:18;2.10;1.00
3308;DHT22;1666;48.898;9.182;2023-02-08T16:18:56;2.10;1.00
3308;DHT22;1666;48.898;9.182;2023-02-08T16:21:30;2.00;1.00
3308;DHT22;1666;48.898;9.182;2023-02-08T16:24:05;2.00;1.00
3308;DHT22;1666;48.898;9.182;2023-02-08T16:26:40;1.90;1.00
3308;DHT22;1666;48.898;9.182;2023-02-08T16:29:17;1.90;1.00
3308;DHT22;1666;48.898;9.182;2023-02-08T16:31:58;1.80;1.00
3308;DHT22;1666;48.898;9.182;2023-02-08T16:34:32;1.80;1.00
3308;DHT22;1666;48.898;9.182;2023-02-08T16:37:04;1.80;1.00
3308;DHT22;1666;48.898;9.182;2023-02-08T16:39:37;1.70;1.00
3308;DHT22;1666;48.898;9.182;2023-02-08T16:42:26;1.70;1.00
3308;DHT22;1666;48.898;9.182;2023-02-08T16:45:00;1.60;1.00
3308;DHT22;1666;48.898;9.182;2023-02-08T16:47:37;1.60;1.00
3308;DHT22;1666;48.898;9.182;2023-02-08T16:50:10;1.50;1.00
3308;DHT22;1666;48.898;9.182;2023-02-08T16:52:40;1.50;1.00
3308;DHT22;1666;48.898;9.182;2023-02-08T16:55:15;1.50;1.00
3308;DHT22;1666;48.898;9.182;2023-02-08T16:57:47;1.40;1.00
3308;DHT22;1666;48.898;9.182;2023-02-08T17:00:21;1.40;1.00
3308;DHT22;1666;48.898;9.182;2023-02-08T17:02:54;1.30;1.00
3308;DHT22;1666;48.898;9.182;2023-02-08T17:05:27;1.30;1.00
3308;DHT22;1666;48.898;9.182;2023-02-08T17:07:58;1.30;1.00
3308;DHT22;1666;48.898;9.182;2023-02-08T17:10:30;1.20;1.00
3308;DHT22;1666;48.898;9.182;2023-02-08T17:13:01;1.10;1.00
3308;DHT22;1666;48.898;9.182;2023-02-08T17:15:48;1.10;1.00
3308;DHT22;1666;48.898;9.182;2023-02-08T17:18:21;1.10;1.00
3308;DHT22;1666;48.898;9.182;2023-02-08T17:20:51;1.00;1.00
3308;DHT22;1666;48.898;9.182;2023-02-08T17:23:26;1.00;1.00
3308;DHT22;1666;48.898;9.182;2023-02-08T17:25:56;1.10;1.00
3308;DHT22;1666;48.898;9.182;2023-02-08T17:28:26;1.00;1.00